Time;durP1;ratioP1;P1;durP2;ratioP2;P2;SDS_P1;SDS_P2;PMS_P1;PMS_P2;Temp;Humidity;BMP_temperature;BMP_pressure;BME280_temperature;BME280_humidity;BME280_pressure;Samples;Min_cycle;Max_cycle;Signal;HPM_P1;HPM_P2
2022/03/09 00:01:47;;;;;;;25.65;13.68;;;;;;;5.54;46.79;102187.78;4935154;28;20043;-49
2022/03/09 00:04:12;;;;;;;31.42;14.05;;;;;;;5.48;46.56;102188.34;4939318;28;22455;-52
2022/03/09 00:06:38;;;;;;;27.75;13.55;;;;;;;5.49;46.42;102189.22;4935803;28;20062;-51
2022/03/09 00:09:03;;;;;;;27.02;13.98;;;;;;;5.54;46.46;102199.00;4940076;28;20141;-51
2022/03/09 00:11:29;;;;;;;26.77;13.90;;;;;;;5.53;45.87;102189.47;4940008;28;20355;-51
2022/03/09 00:13:54;;;;;;;28.50;13.45;;;;;;;5.48;46.45;102196.09;4932925;28;20042;-48
2022/03/09 00:16:20;;;;;;;29.98;14.75;;;;;;;5.50;46.29;102198.75;4925634;28;20542;-53
2022/03/09 00:18:45;;;;;;;29.95;13.60;;;;;;;5.46;46.68;102202.88;4938736;28;20043;-53
2022/03/09 00:21:11;;;;;;;28.30;13.52;;;;;;;5.42;46.10;102200.94;4941225;28;20054;-49
2022/03/09 00:23:36;;;;;;;26.63;13.35;;;;;;;5.35;46.43;102200.50;4934775;28;20720;-50
2022/03/09 00:26:03;;;;;;;28.30;13.45;;;;;;;5.37;46.91;102199.75;4934516;28;20303;-52
2022/03/09 00:28:29;;;;;;;27.42;13.52;;;;;;;5.39;46.65;102205.03;4940054;28;20050;-49
2022/03/09 00:30:54;;;;;;;28.10;14.23;;;;;;;5.41;46.62;102208.59;4940408;28;20058;-52
2022/03/09 00:33:19;;;;;;;26.48;13.65;;;;;;;5.33;46.31;102208.16;4937830;28;20461;-49
2022/03/09 00:35:45;;;;;;;30.83;15.20;;;;;;;5.44;46.60;102207.06;4934395;28;20050;-52
2022/03/09 00:38:11;;;;;;;31.27;14.68;;;;;;;5.32;46.51;102206.38;4935006;28;20082;-53
2022/03/09 00:40:37;;;;;;;29.98;14.77;;;;;;;5.37;46.26;102214.41;4938584;28;20215;-51
2022/03/09 00:43:03;;;;;;;31.27;14.07;;;;;;;5.39;46.36;102211.09;4933221;28;20125;-53
2022/03/09 00:45:28;;;;;;;29.25;14.57;;;;;;;5.32;46.85;102217.63;4930175;28;20038;-51
2022/03/09 00:47:53;;;;;;;28.17;13.50;;;;;;;5.34;46.68;102222.88;4933404;28;20137;-57
2022/03/09 00:50:19;;;;;;;30.08;14.15;;;;;;;5.30;46.74;102233.88;4937102;28;20054;-52
2022/03/09 00:52:47;;;;;;;26.75;13.63;;;;;;;5.22;47.08;102227.38;4937010;28;20137;-52
2022/03/09 00:55:13;;;;;;;25.10;13.15;;;;;;;5.25;46.99;102231.00;4940876;28;20046;-50
2022/03/09 00:57:38;;;;;;;31.83;14.38;;;;;;;5.24;46.93;102236.09;4930676;28;20043;-51
2022/03/09 01:00:03;;;;;;;27.55;13.68;;;;;;;5.15;47.43;102230.41;4933339;28;20197;-51
2022/03/09 01:02:29;;;;;;;29.42;14.45;;;;;;;5.08;47.54;102225.69;4937964;28;20825;-49
2022/03/09 01:04:54;;;;;;;32.58;14.18;;;;;;;5.17;46.93;102228.81;4933727;28;20046;-50
2022/03/09 01:07:19;;;;;;;27.65;13.40;;;;;;;5.17;47.14;102226.22;4937226;28;20051;-51
2022/03/09 01:09:45;;;;;;;29.63;14.35;;;;;;;5.17;47.02;102223.63;4932060;28;20466;-55
2022/03/09 01:12:10;;;;;;;28.10;14.35;;;;;;;5.16;47.28;102222.75;4933300;28;20418;-53
2022/03/09 01:14:37;;;;;;;33.15;14.63;;;;;;;5.15;47.18;102226.13;4939595;28;20126;-51
2022/03/09 01:17:03;;;;;;;29.48;13.95;;;;;;;5.07;47.31;102226.47;4936651;28;20406;-53
2022/03/09 01:19:28;;;;;;;26.50;13.52;;;;;;;5.11;46.60;102224.19;4935513;28;20043;-53
2022/03/09 01:21:54;;;;;;;29.00;13.65;;;;;;;5.06;47.00;102229.91;4928034;28;20081;-53
2022/03/09 01:24:19;;;;;;;31.60;14.57;;;;;;;5.13;46.88;102225.13;4936502;28;20047;-51
2022/03/09 01:26:45;;;;;;;29.48;14.05;;;;;;;5.10;46.42;102227.56;4940434;28;20035;-50
2022/03/09 01:29:11;;;;;;;28.65;13.90;;;;;;;5.08;47.23;102226.56;4937029;28;20111;-55
2022/03/09 01:31:36;;;;;;;27.02;13.93;;;;;;;5.12;47.06;102220.75;4939919;28;20046;-51
2022/03/09 01:34:02;;;;;;;26.95;14.07;;;;;;;5.01;46.78;102221.84;4930944;28;20055;-49
2022/03/09 01:36:28;;;;;;;31.63;14.10;;;;;;;4.99;47.17;102223.47;4938780;28;20062;-51
2022/03/09 01:38:53;;;;;;;26.55;12.90;;;;;;;4.98;47.06;102223.38;4937647;28;20472;-54
2022/03/09 01:41:18;;;;;;;30.73;14.23;;;;;;;5.06;47.13;102219.56;4938912;28;20042;-50
2022/03/09 01:43:44;;;;;;;28.23;14.13;;;;;;;4.99;46.76;102209.66;4940123;28;20101;-49
2022/03/09 01:46:10;;;;;;;26.20;14.23;;;;;;;4.97;46.76;102213.84;4922599;28;20489;-52
2022/03/09 01:48:35;;;;;;;27.67;14.15;;;;;;;4.97;46.90;102214.75;4940539;28;20458;-50
2022/03/09 01:51:01;;;;;;;27.13;13.73;;;;;;;4.90;47.40;102210.91;4937258;28;20143;-51
2022/03/09 01:53:26;;;;;;;29.73;13.80;;;;;;;4.88;47.34;102212.50;4939743;28;20054;-53
2022/03/09 01:55:52;;;;;;;27.45;14.02;;;;;;;4.85;47.37;102201.13;4932583;28;20067;-52
2022/03/09 01:58:17;;;;;;;28.08;13.95;;;;;;;4.83;47.90;102207.88;4937566;28;20042;-52
2022/03/09 02:00:43;;;;;;;28.38;14.35;;;;;;;4.83;47.16;102200.13;4936733;28;20054;-53
2022/03/09 02:03:08;;;;;;;27.55;14.10;;;;;;;4.79;46.87;102199.06;4934885;28;20046;-52
2022/03/09 02:05:34;;;;;;;29.38;14.32;;;;;;;4.82;47.14;102200.94;4940961;28;20105;-51
2022/03/09 02:10:45;;;;;;;28.08;13.80;;;;;;;4.74;47.13;102203.09;4937830;28;20187;-50
2022/03/09 02:13:10;;;;;;;28.10;13.38;;;;;;;4.85;47.12;102194.25;4939821;28;20051;-51
2022/03/09 02:15:36;;;;;;;27.88;14.10;;;;;;;4.88;46.91;102197.00;4936966;28;20241;-54
2022/03/09 02:18:02;;;;;;;28.98;14.30;;;;;;;4.75;47.06;102198.81;4931374;28;20323;-52
2022/03/09 02:20:27;;;;;;;28.73;14.02;;;;;;;4.83;46.61;102206.19;4937158;28;20050;-51
2022/03/09 02:22:56;;;;;;;30.88;14.52;;;;;;;4.86;46.89;102201.22;4943937;28;20488;-50
2022/03/09 02:25:21;;;;;;;29.52;13.77;;;;;;;4.75;47.28;102198.81;4941425;28;20446;-52
2022/03/09 02:27:47;;;;;;;30.80;14.07;;;;;;;4.79;46.89;102212.00;4937957;28;20045;-49
2022/03/09 02:30:15;;;;;;;29.25;14.38;;;;;;;4.79;47.67;102206.81;4941396;28;20478;-50
2022/03/09 02:32:46;;;;;;;28.40;14.07;;;;;;;4.84;47.29;102204.50;4939130;28;20561;-51
2022/03/09 02:35:13;;;;;;;29.38;14.07;;;;;;;4.81;47.14;102201.75;4942750;28;20042;-53
2022/03/09 02:37:39;;;;;;;28.27;14.63;;;;;;;4.81;46.88;102197.47;4938694;28;20141;-51
2022/03/09 02:40:08;;;;;;;27.65;13.57;;;;;;;4.76;46.81;102192.81;4929423;28;20039;-52
2022/03/09 02:42:33;;;;;;;33.80;14.90;;;;;;;4.64;47.27;102195.59;4944833;28;20067;-53
2022/03/09 02:44:59;;;;;;;31.05;14.23;;;;;;;4.72;47.04;102194.34;4940491;28;20773;-52
2022/03/09 02:47:25;;;;;;;29.20;14.20;;;;;;;4.70;47.33;102197.63;4937105;28;20442;-52
2022/03/09 02:49:50;;;;;;;27.70;14.25;;;;;;;4.72;47.64;102198.63;4932491;28;20053;-54
2022/03/09 02:52:16;;;;;;;30.27;14.50;;;;;;;4.63;47.63;102200.69;4938700;28;20035;-50
2022/03/09 02:54:41;;;;;;;27.70;14.20;;;;;;;4.68;47.66;102188.94;4942810;28;20096;-55
2022/03/09 02:57:07;;;;;;;29.05;14.38;;;;;;;4.65;47.34;102187.03;4939680;28;20039;-49
2022/03/09 02:59:32;;;;;;;29.15;14.38;;;;;;;4.67;47.42;102189.72;4942637;28;20052;-52
2022/03/09 03:01:58;;;;;;;29.25;14.43;;;;;;;4.68;47.01;102194.09;4933281;28;20458;-54
2022/03/09 03:04:23;;;;;;;29.75;14.40;;;;;;;4.71;47.75;102187.41;4940639;28;20050;-55
2022/03/09 03:06:48;;;;;;;28.70;14.13;;;;;;;4.59;47.73;102186.69;4943026;28;20446;-50
2022/03/09 03:09:14;;;;;;;28.67;13.77;;;;;;;4.64;47.89;102179.19;4937033;28;20051;-51
2022/03/09 03:11:44;;;;;;;31.33;14.40;;;;;;;4.69;47.71;102182.97;4943399;28;20113;-52
2022/03/09 03:14:09;;;;;;;29.50;13.60;;;;;;;4.60;47.60;102192.75;4932838;28;20035;-50
2022/03/09 03:16:34;;;;;;;32.42;14.00;;;;;;;4.60;48.02;102182.41;4943763;28;20133;-51
2022/03/09 03:19:00;;;;;;;30.88;14.20;;;;;;;4.62;47.15;102186.88;4930378;28;20305;-54
2022/03/09 03:21:25;;;;;;;27.20;13.02;;;;;;;4.63;47.13;102186.09;4944323;28;20061;-50
2022/03/09 03:23:51;;;;;;;27.10;13.68;;;;;;;4.61;47.15;102190.25;4930185;28;20038;-54
2022/03/09 03:26:16;;;;;;;27.38;13.65;;;;;;;4.53;48.13;102188.91;4935903;28;20057;-51
2022/03/09 03:28:41;;;;;;;28.65;14.45;;;;;;;4.49;47.78;102195.59;4938396;28;20093;-53
2022/03/09 03:31:07;;;;;;;28.75;13.63;;;;;;;4.53;47.97;102191.50;4941943;28;20039;-49
2022/03/09 03:33:32;;;;;;;29.88;13.85;;;;;;;4.42;47.90;102188.28;4943055;28;20061;-52
2022/03/09 03:35:58;;;;;;;28.45;13.43;;;;;;;4.55;47.29;102189.00;4932292;28;20130;-53
2022/03/09 03:38:23;;;;;;;26.17;13.05;;;;;;;4.52;48.15;102193.97;4937056;28;20099;-52
2022/03/09 03:40:49;;;;;;;28.98;13.65;;;;;;;4.48;48.15;102190.34;4941199;28;20038;-51
2022/03/09 03:43:14;;;;;;;29.35;13.57;;;;;;;4.39;47.83;102192.41;4934428;28;20102;-53
2022/03/09 03:45:40;;;;;;;28.13;13.35;;;;;;;4.43;48.39;102202.09;4939798;28;20619;-51
2022/03/09 03:48:06;;;;;;;30.92;13.90;;;;;;;4.46;48.03;102189.34;4932118;28;20429;-53
2022/03/09 03:50:31;;;;;;;28.27;13.70;;;;;;;4.44;48.70;102191.88;4937704;28;20300;-54
2022/03/09 03:52:56;;;;;;;28.42;13.48;;;;;;;4.40;47.67;102186.41;4939565;28;20085;-53
2022/03/09 03:55:22;;;;;;;25.70;12.93;;;;;;;4.27;48.13;102184.78;4951275;28;20602;-50
2022/03/09 03:57:47;;;;;;;31.38;13.75;;;;;;;4.40;48.84;102186.41;4935218;28;20074;-54
2022/03/09 04:00:13;;;;;;;29.58;13.30;;;;;;;4.35;48.39;102180.09;4937625;28;20050;-50
2022/03/09 04:02:39;;;;;;;27.42;12.63;;;;;;;4.48;47.94;102180.91;4941878;28;20101;-55
2022/03/09 04:05:05;;;;;;;28.35;13.23;;;;;;;4.47;47.58;102180.81;4942639;28;20047;-52
2022/03/09 04:07:31;;;;;;;28.63;12.57;;;;;;;4.47;47.58;102179.13;4939800;28;20472;-55
2022/03/09 04:09:56;;;;;;;26.92;13.38;;;;;;;4.52;46.85;102179.38;4932709;28;20043;-54
2022/03/09 04:12:23;;;;;;;26.02;12.55;;;;;;;4.64;47.06;102177.50;4939377;28;20046;-51
2022/03/09 04:14:49;;;;;;;28.60;13.48;;;;;;;4.70;47.32;102183.03;4941403;28;20078;-51
2022/03/09 04:17:15;;;;;;;28.80;12.93;;;;;;;4.85;46.33;102180.44;4921399;28;20122;-53
2022/03/09 04:19:40;;;;;;;29.02;13.38;;;;;;;4.91;46.36;102175.63;4937412;28;20097;-51
2022/03/09 04:22:05;;;;;;;29.70;13.48;;;;;;;4.98;45.98;102174.28;4934905;28;22234;-53
2022/03/09 04:24:31;;;;;;;27.65;13.10;;;;;;;5.04;45.60;102179.78;4937213;28;20031;-56
2022/03/09 04:26:56;;;;;;;27.35;12.82;;;;;;;5.04;45.22;102172.94;4938682;28;20778;-52
2022/03/09 04:29:21;;;;;;;25.17;13.35;;;;;;;4.97;45.90;102180.25;4939563;28;20113;-52
2022/03/09 04:31:47;;;;;;;25.27;12.48;;;;;;;4.94;46.42;102180.94;4933989;28;20034;-50
2022/03/09 04:34:12;;;;;;;27.38;12.77;;;;;;;4.94;46.37;102177.50;4937684;28;20912;-51
2022/03/09 04:36:38;;;;;;;26.27;12.88;;;;;;;4.84;46.76;102179.56;4939581;28;20050;-51
2022/03/09 04:39:05;;;;;;;26.38;13.63;;;;;;;4.79;46.51;102178.41;4938513;28;20056;-54
2022/03/09 04:41:30;;;;;;;25.85;13.05;;;;;;;4.76;47.09;102173.03;4935762;28;20049;-52
2022/03/09 04:43:56;;;;;;;27.77;13.55;;;;;;;4.80;46.71;102168.97;4930000;28;20323;-50
2022/03/09 04:46:21;;;;;;;35.30;13.77;;;;;;;4.74;46.68;102172.09;4937185;28;20034;-51
2022/03/09 04:48:49;;;;;;;29.75;12.88;;;;;;;4.76;46.58;102174.75;4939083;28;20109;-54
2022/03/09 04:51:15;;;;;;;29.17;13.35;;;;;;;4.69;47.26;102173.53;4939219;28;20081;-52
2022/03/09 04:53:40;;;;;;;29.50;14.07;;;;;;;4.71;46.97;102187.41;4936083;28;20510;-50
2022/03/09 04:56:05;;;;;;;27.08;13.90;;;;;;;4.65;47.34;102186.16;4929461;28;20042;-50
2022/03/09 04:58:31;;;;;;;26.63;13.27;;;;;;;4.59;48.27;102186.69;4935558;28;20055;-53
2022/03/09 05:00:56;;;;;;;30.25;13.27;;;;;;;4.55;47.59;102189.91;4929301;28;20113;-52
2022/03/09 05:03:22;;;;;;;28.02;13.75;;;;;;;4.53;48.54;102188.91;4939442;28;20356;-54
2022/03/09 05:05:47;;;;;;;28.50;12.88;;;;;;;4.46;48.24;102194.50;4938493;28;20394;-59
2022/03/09 05:08:13;;;;;;;28.17;13.35;;;;;;;4.39;48.74;102190.69;4928754;28;20035;-55
2022/03/09 05:10:38;;;;;;;26.92;13.05;;;;;;;4.28;49.29;102196.00;4937644;28;20042;-54
2022/03/09 05:13:05;;;;;;;28.20;13.18;;;;;;;4.24;49.56;102196.63;4937038;28;20959;-52
2022/03/09 05:15:31;;;;;;;29.55;13.38;;;;;;;4.21;49.75;102196.47;4938845;28;20069;-52
2022/03/09 05:17:56;;;;;;;28.58;14.13;;;;;;;4.19;49.24;102204.13;4929765;28;20051;-53
2022/03/09 05:20:21;;;;;;;27.05;13.70;;;;;;;4.04;49.79;102206.66;4940712;28;20458;-51
2022/03/09 05:22:47;;;;;;;30.58;13.68;;;;;;;4.15;49.26;102206.44;4937273;28;20573;-52
2022/03/09 05:25:13;;;;;;;31.02;13.57;;;;;;;4.11;49.93;102197.59;4938659;28;20059;-52
2022/03/09 05:27:40;;;;;;;29.67;13.82;;;;;;;4.01;49.95;102208.16;4940946;28;20051;-50
2022/03/09 05:30:06;;;;;;;29.50;13.80;;;;;;;3.99;50.32;102202.91;4930218;28;20203;-51
2022/03/09 05:32:32;;;;;;;28.65;13.57;;;;;;;3.99;49.20;102199.44;4941011;28;20039;-50
2022/03/09 05:34:57;;;;;;;26.20;13.35;;;;;;;3.97;49.53;102203.59;4938859;28;20047;-52
2022/03/09 05:37:22;;;;;;;26.17;12.88;;;;;;;4.00;49.85;102212.44;4938346;28;20130;-53
2022/03/09 05:39:48;;;;;;;26.55;13.15;;;;;;;3.87;49.67;102203.84;4935247;28;20046;-57
2022/03/09 05:42:14;;;;;;;27.60;13.45;;;;;;;3.90;49.96;102212.69;4937704;28;20486;-54
2022/03/09 05:44:40;;;;;;;28.63;13.60;;;;;;;3.77;50.22;102216.97;4941729;28;20244;-53
2022/03/09 05:47:05;;;;;;;28.58;13.63;;;;;;;3.76;50.10;102215.19;4931662;28;20050;-54
2022/03/09 05:49:31;;;;;;;27.77;13.25;;;;;;;3.87;49.79;102212.47;4938309;28;20051;-52
2022/03/09 05:51:56;;;;;;;25.77;13.00;;;;;;;3.79;49.91;102205.94;4931231;28;20848;-51
2022/03/09 05:54:22;;;;;;;29.70;13.10;;;;;;;3.78;50.12;102221.34;4932719;28;20049;-53
2022/03/09 05:56:48;;;;;;;26.30;13.27;;;;;;;3.82;49.99;102223.31;4940591;28;20078;-53
2022/03/09 05:59:13;;;;;;;31.98;13.80;;;;;;;3.72;49.99;102226.13;4935874;28;20051;-54
2022/03/09 06:01:39;;;;;;;27.65;13.73;;;;;;;3.63;50.84;102227.31;4937196;28;21016;-54
2022/03/09 06:04:06;;;;;;;31.80;13.82;;;;;;;3.50;50.90;102222.19;4930324;28;20675;-53
2022/03/09 06:06:32;;;;;;;28.42;13.50;;;;;;;3.62;50.66;102222.06;4938322;28;20049;-55
2022/03/09 06:08:57;;;;;;;26.25;13.15;;;;;;;3.67;50.79;102224.13;4930830;28;20047;-52
2022/03/09 06:11:23;;;;;;;28.95;13.05;;;;;;;3.65;51.13;102227.44;4935845;28;20442;-50
2022/03/09 06:13:49;;;;;;;25.92;13.07;;;;;;;3.59;50.64;102224.47;4933014;28;20039;-57
2022/03/09 06:16:14;;;;;;;28.35;14.00;;;;;;;3.51;50.65;102220.50;4932813;28;20047;-55
2022/03/09 06:18:40;;;;;;;27.92;13.30;;;;;;;3.53;50.60;102226.66;4932763;28;20430;-52
2022/03/09 06:21:05;;;;;;;27.30;13.25;;;;;;;3.47;51.62;102231.44;4938506;28;20057;-53
2022/03/09 06:23:31;;;;;;;26.23;12.65;;;;;;;3.39;51.18;102230.94;4937343;28;20162;-51
2022/03/09 06:25:57;;;;;;;27.05;12.77;;;;;;;3.56;51.13;102225.16;4930454;28;20781;-50
2022/03/09 06:28:22;;;;;;;28.50;13.25;;;;;;;3.49;51.52;102224.66;4936786;28;20149;-52
2022/03/09 06:30:48;;;;;;;29.08;13.57;;;;;;;3.51;51.04;102229.13;4939652;28;20335;-54
2022/03/09 06:33:14;;;;;;;29.30;13.60;;;;;;;3.63;51.19;102226.44;4938707;28;20046;-53
2022/03/09 06:35:39;;;;;;;28.23;13.30;;;;;;;3.61;50.35;102233.16;4935793;28;20138;-52
2022/03/09 06:38:05;;;;;;;29.25;13.27;;;;;;;3.59;51.29;102235.66;4928932;28;20054;-53
2022/03/09 06:40:30;;;;;;;27.17;13.13;;;;;;;3.67;50.79;102233.56;4936502;28;20455;-55
2022/03/09 06:42:56;;;;;;;27.00;13.23;;;;;;;3.68;50.78;102231.06;4933561;28;20399;-53
2022/03/09 06:45:21;;;;;;;31.80;13.77;;;;;;;3.70;50.73;102233.75;4933321;28;20073;-54
2022/03/09 06:47:46;;;;;;;27.90;13.45;;;;;;;3.73;50.82;102239.09;4933503;28;20177;-57
2022/03/09 06:50:12;;;;;;;28.60;13.77;;;;;;;3.83;50.39;102235.41;4938943;28;20552;-54
2022/03/09 06:52:38;;;;;;;26.92;13.40;;;;;;;3.85;50.51;102231.22;4934824;28;20136;-53
2022/03/09 06:55:07;;;;;;;30.58;13.00;;;;;;;3.96;50.16;102231.13;4938436;28;20047;-52
2022/03/09 06:57:33;;;;;;;26.70;13.52;;;;;;;4.09;49.96;102230.13;4935804;28;21296;-50
2022/03/09 06:59:59;;;;;;;31.40;13.65;;;;;;;4.64;48.23;102228.28;4928172;28;20834;-52
2022/03/09 07:02:25;;;;;;;30.98;13.55;;;;;;;5.33;46.61;102226.25;4941491;28;20121;-53
2022/03/09 07:04:51;;;;;;;31.40;13.48;;;;;;;5.68;46.29;102229.09;4936978;28;20038;-54
2022/03/09 07:07:16;;;;;;;26.83;13.80;;;;;;;5.98;45.21;102236.75;4940526;28;20034;-50
2022/03/09 07:09:43;;;;;;;28.88;13.60;;;;;;;6.41;44.03;102233.03;4931964;28;20051;-52
2022/03/09 07:12:08;;;;;;;26.17;13.90;;;;;;;6.61;44.18;102240.94;4935461;28;20047;-52
2022/03/09 07:14:34;;;;;;;32.58;13.50;;;;;;;6.53;43.43;102246.59;4937661;28;20039;-53
2022/03/09 07:17:00;;;;;;;36.15;13.63;;;;;;;6.53;43.13;102245.72;4937881;28;20054;-51
2022/03/09 07:19:25;;;;;;;27.70;13.65;;;;;;;6.60;43.48;102242.63;4943142;28;20118;-49
2022/03/09 07:21:51;;;;;;;24.85;13.40;;;;;;;6.37;44.08;102246.66;4934702;28;20062;-53
2022/03/09 07:24:16;;;;;;;26.92;13.98;;;;;;;6.67;43.73;102249.03;4938034;28;20906;-51
2022/03/09 07:26:42;;;;;;;26.30;14.05;;;;;;;6.68;43.22;102251.69;4939092;28;20410;-54
2022/03/09 07:29:09;;;;;;;32.60;14.07;;;;;;;6.55;43.71;102261.34;4940670;28;20065;-53
2022/03/09 07:31:35;;;;;;;27.55;13.77;;;;;;;6.33;44.26;102249.00;4939563;28;20080;-54
2022/03/09 07:34:01;;;;;;;29.30;14.40;;;;;;;5.99;44.72;102252.38;4931317;28;20113;-53
2022/03/09 07:36:26;;;;;;;31.35;14.15;;;;;;;5.85;45.17;102255.91;4941280;28;20482;-54
2022/03/09 07:38:52;;;;;;;29.63;14.23;;;;;;;5.78;45.12;102258.06;4937536;28;20869;-54
2022/03/09 07:41:17;;;;;;;27.15;14.43;;;;;;;5.62;45.52;102262.38;4939950;28;20054;-54
2022/03/09 07:43:43;;;;;;;29.55;14.52;;;;;;;5.70;46.20;102271.47;4928782;28;20671;-52
2022/03/09 07:46:09;;;;;;;29.58;14.55;;;;;;;5.63;45.91;102263.28;4931036;28;20430;-52
2022/03/09 07:48:34;;;;;;;30.27;14.27;;;;;;;5.66;46.10;102266.06;4939109;28;20113;-51
2022/03/09 07:51:00;;;;;;;36.55;14.38;;;;;;;5.67;46.06;102268.69;4928555;28;20035;-51
2022/03/09 07:53:25;;;;;;;28.73;14.10;;;;;;;5.62;45.83;102266.66;4938203;28;20054;-53
2022/03/09 07:55:50;;;;;;;28.65;14.00;;;;;;;5.49;46.22;102264.25;4920080;28;20031;-53
2022/03/09 07:58:16;;;;;;;29.52;13.90;;;;;;;5.76;45.54;102270.91;4930903;28;20446;-53
2022/03/09 08:00:41;;;;;;;31.15;13.75;;;;;;;5.95;45.22;102268.56;4938420;28;20070;-51
2022/03/09 08:03:06;;;;;;;27.35;13.75;;;;;;;6.08;45.35;102270.13;4935219;28;20050;-49
2022/03/09 08:05:32;;;;;;;29.25;13.82;;;;;;;6.05;45.14;102260.47;4927321;28;20093;-54
2022/03/09 08:07:57;;;;;;;30.13;14.02;;;;;;;6.17;45.08;102265.41;4930278;28;20043;-51
2022/03/09 08:10:22;;;;;;;29.60;14.88;;;;;;;6.21;44.83;102264.78;4934873;28;20045;-53
2022/03/09 08:12:48;;;;;;;27.58;13.50;;;;;;;6.24;45.22;102266.63;4931429;28;20063;-51
2022/03/09 08:15:13;;;;;;;26.40;13.85;;;;;;;6.37;44.86;102264.78;4932446;28;20035;-53
2022/03/09 08:17:39;;;;;;;34.05;14.30;;;;;;;6.51;44.50;102268.09;4935804;28;20588;-52
2022/03/09 08:20:05;;;;;;;26.83;14.13;;;;;;;6.41;44.32;102266.69;4927731;28;20042;-51
2022/03/09 08:22:31;;;;;;;28.52;14.30;;;;;;;6.53;44.69;102264.75;4938818;28;20046;-54
2022/03/09 08:24:56;;;;;;;27.08;13.93;;;;;;;6.63;44.02;102262.66;4933163;28;20047;-54
2022/03/09 08:27:22;;;;;;;31.63;14.85;;;;;;;6.80;44.06;102270.47;4932341;28;20510;-52
2022/03/09 08:29:48;;;;;;;27.83;14.38;;;;;;;6.95;43.81;102267.78;4936140;28;20051;-51
2022/03/09 08:32:13;;;;;;;28.73;14.63;;;;;;;6.92;43.60;102265.91;4932428;28;20538;-53
2022/03/09 08:34:39;;;;;;;27.05;14.05;;;;;;;6.95;43.66;102272.94;4935387;28;20042;-54
2022/03/09 08:37:04;;;;;;;29.50;14.50;;;;;;;6.98;43.51;102267.00;4933612;28;20839;-53
2022/03/09 08:39:29;;;;;;;32.03;15.10;;;;;;;7.34;43.43;102277.50;4934977;28;20054;-53
2022/03/09 08:41:55;;;;;;;30.95;14.40;;;;;;;7.54;42.80;102268.09;4931747;28;20461;-53
2022/03/09 08:44:21;;;;;;;30.38;15.35;;;;;;;7.91;42.70;102260.31;4938891;28;20502;-55
2022/03/09 08:46:46;;;;;;;35.65;14.82;;;;;;;7.91;41.71;102262.91;4937886;28;20047;-52
2022/03/09 08:49:12;;;;;;;31.42;14.73;;;;;;;7.82;41.45;102259.88;4935550;28;20047;-50
2022/03/09 08:51:38;;;;;;;29.10;14.88;;;;;;;7.61;41.83;102262.38;4938410;28;20127;-51
2022/03/09 08:54:04;;;;;;;27.42;14.60;;;;;;;7.58;42.27;102257.03;4930802;28;20120;-54
2022/03/09 08:56:29;;;;;;;31.55;15.15;;;;;;;7.92;41.79;102256.00;4926875;28;20382;-51
2022/03/09 08:58:55;;;;;;;31.35;14.75;;;;;;;7.75;42.04;102257.81;4935783;28;20055;-51
2022/03/09 09:01:22;;;;;;;31.33;14.57;;;;;;;7.84;41.93;102254.75;4935127;28;20541;-52
2022/03/09 09:03:47;;;;;;;33.42;15.07;;;;;;;7.84;42.22;102263.44;4935138;28;20160;-52
2022/03/09 09:06:12;;;;;;;32.75;15.07;;;;;;;8.18;41.94;102270.16;4934028;28;20486;-52
2022/03/09 09:08:38;;;;;;;32.42;15.95;;;;;;;8.43;41.88;102270.47;4932737;28;20603;-59
2022/03/09 09:11:04;;;;;;;30.35;15.25;;;;;;;8.88;40.69;102264.69;4935223;28;20043;-53
2022/03/09 09:13:30;;;;;;;32.50;15.27;;;;;;;9.17;41.11;102262.38;4939088;28;20407;-53
2022/03/09 09:15:55;;;;;;;30.05;15.27;;;;;;;9.10;40.76;102279.47;4927177;28;20556;-50
2022/03/09 09:18:21;;;;;;;31.92;15.32;;;;;;;9.21;40.15;102278.19;4938874;28;20058;-54
2022/03/09 09:20:47;;;;;;;30.35;16.25;;;;;;;9.04;39.72;102273.09;4937970;28;20441;-50
2022/03/09 09:23:12;;;;;;;32.50;16.40;;;;;;;9.28;40.54;102279.31;4936500;28;20051;-53
2022/03/09 09:25:38;;;;;;;32.47;15.23;;;;;;;9.57;39.56;102283.13;4940394;28;20047;-54
2022/03/09 09:28:04;;;;;;;32.25;15.52;;;;;;;9.76;39.66;102283.88;4927726;28;20979;-52
2022/03/09 09:30:30;;;;;;;32.90;15.55;;;;;;;9.74;39.36;102276.84;4938915;28;20050;-51
2022/03/09 09:32:57;;;;;;;31.50;16.10;;;;;;;9.68;39.27;102279.22;4940128;28;21238;-52
2022/03/09 09:35:23;;;;;;;32.88;16.00;;;;;;;9.94;39.64;102272.44;4937931;28;20061;-50
2022/03/09 09:37:49;;;;;;;32.55;16.63;;;;;;;9.92;38.75;102264.53;4924891;28;20046;-55
2022/03/09 09:40:14;;;;;;;32.45;15.93;;;;;;;9.94;39.35;102262.00;4931324;28;20038;-54
2022/03/09 09:42:42;;;;;;;31.20;16.50;;;;;;;10.12;38.81;102262.69;4933268;28;20038;-52
2022/03/09 09:45:07;;;;;;;33.20;16.20;;;;;;;10.15;38.71;102261.06;4935855;28;20043;-54
2022/03/09 09:47:33;;;;;;;34.88;16.58;;;;;;;10.07;38.94;102259.00;4937426;28;20540;-54
2022/03/09 09:49:59;;;;;;;35.13;16.45;;;;;;;10.47;38.59;102267.50;4932999;28;20071;-51
2022/03/09 09:52:32;;;;;;;29.40;16.70;;;;;;;10.70;38.24;102272.63;4937004;28;20061;-54
2022/03/09 09:54:59;;;;;;;34.00;17.08;;;;;;;10.78;37.81;102268.59;4938140;28;20093;-53
2022/03/09 09:57:27;;;;;;;30.08;16.50;;;;;;;10.92;37.74;102268.19;4937175;28;20542;-51
2022/03/09 09:59:53;;;;;;;34.30;16.92;;;;;;;10.97;37.01;102265.78;4931049;28;20049;-51
2022/03/09 10:02:19;;;;;;;34.03;17.05;;;;;;;11.07;37.37;102262.63;4941837;28;20047;-52
2022/03/09 10:04:50;;;;;;;38.20;17.58;;;;;;;11.22;37.17;102259.66;4938051;28;20138;-52
2022/03/09 10:07:16;;;;;;;32.03;17.55;;;;;;;11.46;37.08;102262.16;4938546;28;20494;-51
2022/03/09 10:09:41;;;;;;;30.90;17.23;;;;;;;11.66;36.43;102258.41;4931152;28;21190;-52
2022/03/09 10:12:09;;;;;;;33.42;17.60;;;;;;;11.46;37.09;102257.81;4931122;28;20153;-51
2022/03/09 10:14:46;;;;;;;32.55;17.42;;;;;;;11.66;36.80;102264.53;4933380;28;21029;-50
2022/03/09 10:17:14;;;;;;;31.02;17.63;;;;;;;11.77;35.95;102271.00;4932935;28;20686;-55
2022/03/09 10:19:43;;;;;;;34.95;17.75;;;;;;;11.74;36.29;102276.16;4937690;28;20035;-54
2022/03/09 10:22:27;;;;;;;37.38;17.92;;;;;;;11.84;35.91;102276.41;4926653;28;20097;-53
2022/03/09 10:24:55;;;;;;;33.30;17.52;;;;;;;12.16;35.87;102268.69;4938844;28;20043;-52
2022/03/09 10:27:37;;;;;;;36.58;18.42;;;;;;;12.27;35.81;102275.97;4935846;28;20051;-53
2022/03/09 10:30:05;;;;;;;37.22;18.45;;;;;;;11.98;35.74;102269.88;4927968;28;20528;-53
2022/03/09 10:32:47;;;;;;;40.28;18.48;;;;;;;12.16;35.78;102263.47;4938896;28;20438;-54
2022/03/09 10:35:15;;;;;;;34.53;19.02;;;;;;;12.44;34.84;102267.75;4932072;28;20054;-53
2022/03/09 10:37:43;;;;;;;37.15;18.73;;;;;;;12.25;35.36;102267.22;4938963;28;20109;-53
2022/03/09 10:40:19;;;;;;;34.60;18.35;;;;;;;12.40;34.89;102267.63;4935294;28;20043;-49
2022/03/09 10:42:46;;;;;;;37.65;19.35;;;;;;;12.49;35.25;102270.50;4933758;28;20051;-52
2022/03/09 10:45:13;;;;;;;38.80;19.17;;;;;;;12.43;34.73;102265.09;4940609;28;20471;-53
2022/03/09 10:47:43;;;;;;;42.72;19.42;;;;;;;12.69;34.11;102268.41;4933942;28;20723;-53
2022/03/09 10:50:19;;;;;;;39.85;19.10;;;;;;;12.66;34.55;102274.47;4919514;28;20053;-53
2022/03/09 10:52:58;;;;;;;38.30;18.95;;;;;;;12.80;33.86;102274.84;4933342;28;20447;-53
2022/03/09 10:55:32;;;;;;;36.35;19.23;;;;;;;12.85;34.42;102275.84;4926845;28;20054;-51
2022/03/09 10:58:22;;;;;;;40.60;19.47;;;;;;;12.96;34.52;102272.66;4922331;28;20565;-51
2022/03/09 11:00:53;;;;;;;39.92;19.83;;;;;;;13.09;34.47;102276.47;4939977;28;20449;-52
2022/03/09 11:03:20;;;;;;;43.60;20.20;;;;;;;13.08;33.64;102269.47;4936435;28;20043;-50
2022/03/09 11:05:57;;;;;;;42.40;20.15;;;;;;;13.08;33.77;102276.44;4937020;28;20126;-53
2022/03/09 11:08:27;;;;;;;39.30;20.25;;;;;;;12.66;33.82;102268.34;4935541;28;21156;-49
2022/03/09 11:10:55;;;;;;;37.95;20.05;;;;;;;12.69;34.75;102269.31;4938230;28;20042;-54
2022/03/09 11:13:21;;;;;;;39.65;19.42;;;;;;;13.08;34.47;102263.34;4939836;28;20454;-54
2022/03/09 11:15:47;;;;;;;38.67;20.15;;;;;;;13.01;33.52;102270.16;4935019;28;20433;-56